Data for 01/11/2007

Time Sea-Level Adjusted Pressure Absolute Pressure Temperature Relative Humidity Dew Point   
(mb) (inHg) (mb) (inHg) (C) (F) (%) (C) (F)
00:05 1010 29.83 839 24.78 -12.7 9.2 86 -14.5 5.8
00:10 1010 29.83 839 24.78 -12.8 8.9 86 -14.7 5.5
00:15 1010 29.83 839 24.78 -13 8.7 87 -14.7 5.6
00:20 1010 29.83 839 24.78 -12.8 9 86 -14.6 5.6
00:25 1010 29.83 839 24.78 -13 8.6 84 -15.2 4.7
00:30 1010 29.83 839 24.78 -13.3 8.1 84 -15.5 4.2
00:35 1010 29.83 839 24.78 -13.4 7.8 82 -15.9 3.3
00:40 1010 29.83 839 24.78 -13.6 7.4 82 -16.1 3.1
00:45 1010 29.83 839 24.78 -13.8 7.3 83 -16.1 3
00:50 1010 29.83 840 24.81 -13.7 7.4 81 -16.2 2.8
00:55 1010 29.83 839 24.78 -13.8 7.3 83 -16.1 3
01:00 1010 29.83 839 24.78 -13.9 7 81 -16.5 2.3
01:05 1010 29.83 840 24.81 -14.1 6.6 80 -16.8 1.7
01:10 1010 29.83 840 24.81 -14.4 6.1 80 -17.1 1.3
01:15 1011 29.85 840 24.81 -14.4 6.1 80 -17.1 1.2
01:20 1011 29.85 840 24.81 -14.5 5.9 80 -17.2 1
01:25 1011 29.85 840 24.81 -14.6 5.7 82 -17 1.4
01:30 1011 29.85 840 24.81 -14.8 5.3 83 -17 1.3
01:35 1011 29.85 840 24.81 -14.8 5.4 83 -17.1 1.2
01:40 1011 29.85 840 24.81 -14.9 5.1 83 -17.3 0.9
01:45 1011 29.85 840 24.81 -15.2 4.7 83 -17.4 0.6
01:50 1011 29.85 840 24.81 -15.3 4.4 82 -17.7 0.1
01:55 1011 29.85 840 24.81 -15.4 4.4 83 -17.7 0.2
02:00 1011 29.85 840 24.81 -15.4 4.3 84 -17.6 0.4
02:05 1011 29.85 841 24.83 -15.4 4.4 84 -17.5 0.5
02:10 1011 29.85 841 24.83 -15.5 4.2 83 -17.7 0.2
02:15 1012 29.88 841 24.83 -15.6 3.8 82 -18 -0.5
02:20 1012 29.88 841 24.83 -15.7 3.7 83 -18 -0.4
02:25 1012 29.88 841 24.83 -15.8 3.7 84 -17.9 -0.2
02:30 1012 29.88 841 24.83 -15.6 3.9 84 -17.7 0.1
02:35 1012 29.88 841 24.83 -15.8 3.6 84 -17.9 -0.3
02:40 1012 29.88 841 24.83 -15.8 3.6 84 -17.9 -0.3
02:45 1012 29.88 841 24.83 -16 3.3 85 -17.9 -0.2
02:50 1012 29.88 841 24.83 -16 3.2 85 -18 -0.4
02:55 1012 29.88 841 24.83 -16.2 2.8 84 -18.4 -1.1
03:00 1012 29.88 841 24.83 -16.5 2.4 84 -18.6 -1.4
03:05 1012 29.88 841 24.83 -16.6 2.1 83 -18.8 -1.8
03:10 1012 29.88 841 24.83 -16.8 1.8 84 -18.9 -2.1
03:15 1012 29.88 841 24.83 -16.9 1.5 83 -19.2 -2.5
03:20 1012 29.88 841 24.83 -17.1 1.2 83 -19.4 -2.9
03:25 1012 29.88 842 24.86 -17.2 1 84 -19.4 -2.9
03:30 1012 29.88 842 24.86 -17.2 1 82 -19.6 -3.3
03:35 1013 29.91 842 24.86 -17.5 0.6 83 -19.7 -3.5
03:40 1013 29.91 842 24.86 -17.5 0.4 83 -19.8 -3.7
03:45 1013 29.91 842 24.86 -17.6 0.3 82 -19.9 -3.9
03:50 1013 29.91 842 24.86 -17.8 -0 83 -20.1 -4.1
03:55 1013 29.91 842 24.86 -17.9 -0.3 82 -20.3 -4.5
04:00 1013 29.91 842 24.86 -18.1 -0.5 82 -20.4 -4.7
04:05 1013 29.91 842 24.86 -18.1 -0.6 82 -20.5 -4.9
04:10 1013 29.91 842 24.86 -18.3 -0.9 82 -20.7 -5.2
04:15 1013 29.91 842 24.86 -18.4 -1.1 82 -20.7 -5.2
04:20 1013 29.91 842 24.86 -18.5 -1.3 82 -20.8 -5.5
04:25 1013 29.91 842 24.86 -18.5 -1.4 82 -21 -5.7
04:30 1013 29.91 842 24.86 -18.5 -1.3 81 -21 -5.9
04:35 1013 29.91 842 24.86 -18.5 -1.3 81 -21 -5.9
04:40 1013 29.91 843 24.89 -18.5 -1.4 82 -20.9 -5.6
04:45 1013 29.91 843 24.89 -18.6 -1.5 82 -20.9 -5.7
04:50 1014 29.94 843 24.89 -18.7 -1.6 81 -21.1 -6.1
04:55 1014 29.94 843 24.89 -18.9 -2 81 -21.4 -6.4
05:00 1014 29.94 843 24.89 -19 -2.1 81 -21.4 -6.6
05:05 1014 29.94 843 24.89 -19.1 -2.3 81 -21.5 -6.7
05:10 1014 29.94 843 24.89 -19.2 -2.6 82 -21.6 -6.9
05:15 1014 29.94 843 24.89 -19.4 -2.8 82 -21.7 -7.1
05:20 1014 29.94 843 24.89 -19.5 -3 82 -21.8 -7.3
05:25 1014 29.94 843 24.89 -19.4 -3 82 -21.8 -7.2
05:30 1014 29.94 843 24.89 -19.6 -3.2 81 -22 -7.6
05:35 1014 29.94 843 24.89 -19.6 -3.3 81 -22.1 -7.8
05:40 1014 29.94 843 24.89 -19.7 -3.4 81 -22.1 -7.8
05:45 1014 29.94 843 24.89 -19.8 -3.6 81 -22.2 -8
05:50 1014 29.94 843 24.89 -19.8 -3.6 81 -22.2 -7.9
05:55 1014 29.94 843 24.89 -19.6 -3.3 81 -22.1 -7.8
06:00 1014 29.94 843 24.89 -19.6 -3.3 78 -22.6 -8.6
06:05 1014 29.94 843 24.89 -19.6 -3.3 79 -22.4 -8.3
06:10 1014 29.94 844 24.92 -19.5 -3 80 -22.1 -7.8
06:15 1015 29.97 844 24.92 -19.6 -3.3 80 -22.2 -8
06:20 1015 29.97 844 24.92 -19.8 -3.6 81 -22.3 -8.1
06:25 1015 29.97 844 24.92 -19.8 -3.6 80 -22.4 -8.3
06:30 1015 29.97 844 24.92 -20 -4 80 -22.6 -8.8
06:35 1015 29.97 844 24.92 -20.2 -4.4 79 -22.9 -9.2
06:40 1015 29.97 844 24.92 -20.2 -4.4 79 -23 -9.4
06:45 1015 29.97 844 24.92 -20.3 -4.5 79 -23.1 -9.6
06:50 1015 29.97 844 24.92 -20.4 -4.7 80 -23 -9.4
06:55 1015 29.97 844 24.92 -20.5 -4.8 79 -23.2 -9.7
07:00 1015 29.97 844 24.92 -20.5 -5 79 -23.2 -9.8
07:05 1015 29.97 845 24.95 -20.6 -5.1 80 -23.2 -9.8
07:10 1015 29.97 845 24.95 -20.5 -4.9 80 -23.1 -9.5
07:15 1015 29.97 845 24.95 -20.5 -4.9 79 -23.3 -9.9
07:20 1016 30 845 24.95 -20.6 -5 79 -23.3 -9.9
07:25 1016 30 845 24.95 -20.6 -5.2 79 -23.3 -10
07:30 1016 30 845 24.95 -20.6 -5.1 80 -23.2 -9.8
07:35 1016 30 845 24.95 -20.6 -5.1 79 -23.3 -10
07:40 1016 30 845 24.95 -20.6 -5.1 79 -23.3 -10
07:45 1016 30 845 24.95 -20.7 -5.3 79 -23.5 -10.3
07:50 1016 30 845 24.95 -20.7 -5.3 79 -23.5 -10.3
07:55 1016 30 845 24.95 -20.8 -5.4 79 -23.5 -10.3
08:00 1016 30 845 24.95 -20.9 -5.7 79 -23.6 -10.5
08:05 1016 30 845 24.95 -20.8 -5.5 79 -23.5 -10.4
08:10 1016 30 845 24.95 -20.9 -5.6 78 -23.8 -10.8
08:15 1016 30 845 24.95 -20.9 -5.7 79 -23.6 -10.5
08:20 1016 30 845 24.95 -20.8 -5.5 79 -23.6 -10.5
08:25 1016 30 845 24.95 -20.9 -5.6 79 -23.6 -10.5
08:30 1016 30 845 24.95 -21 -5.7 78 -23.8 -10.8
08:35 1016 30 845 24.95 -21 -5.9 78 -24 -11.1
08:40 1016 30 845 24.95 -21 -5.8 78 -23.8 -10.9
08:45 1016 30 845 24.95 -20.9 -5.7 79 -23.7 -10.7
08:50 1016 30 845 24.95 -20.8 -5.5 80 -23.5 -10.3
08:55 1016 30 845 24.95 -20.7 -5.2 79 -23.4 -10.1
09:00 1016 30 845 24.95 -20.7 -5.2 79 -23.4 -10.2
09:05 1016 30 845 24.95 -20.7 -5.2 79 -23.4 -10.2
09:10 1016 30 845 24.95 -20.5 -4.9 78 -23.4 -10.1
09:15 1016 30 846 24.98 -20.5 -4.8 78 -23.3 -9.9
09:20 1016 30 846 24.98 -20.4 -4.7 78 -23.3 -10
09:25 1016 30 846 24.98 -20.6 -5.1 78 -23.5 -10.3
09:30 1017 30.03 846 24.98 -20.7 -5.3 78 -23.6 -10.4
09:35 1017 30.03 846 24.98 -20.8 -5.4 78 -23.7 -10.7
09:40 1017 30.03 846 24.98 -20.9 -5.7 78 -23.8 -10.9
09:45 1017 30.03 846 24.98 -20.8 -5.5 77 -23.9 -11
09:50 1017 30.03 846 24.98 -20.9 -5.5 79 -23.6 -10.5
09:55 1017 30.03 846 24.98 -20.7 -5.3 77 -23.8 -10.9
10:00 1017 30.03 846 24.98 -20.8 -5.5 78 -23.7 -10.7
10:05 1017 30.03 846 24.98 -20.9 -5.5 78 -23.8 -10.9
10:10 1017 30.03 846 24.98 -20.8 -5.4 77 -23.7 -10.7
10:15 1017 30.03 846 24.98 -20.7 -5.3 77 -23.8 -10.9
10:20 1017 30.03 846 24.98 -20.8 -5.4 77 -23.8 -10.9
10:25 1017 30.03 846 24.98 -20.8 -5.5 78 -23.8 -10.8
10:30 1017 30.03 846 24.98 -20.7 -5.3 78 -23.6 -10.5
10:35 1017 30.03 847 25.01 -20.7 -5.3 78 -23.6 -10.5
10:40 1017 30.03 847 25.01 -20.6 -5.2 78 -23.5 -10.3
10:45 1017 30.03 847 25.01 -20.6 -5.2 77 -23.6 -10.5
10:50 1017 30.03 847 25.01 -20.6 -5 78 -23.5 -10.3
10:55 1017 30.03 847 25.01 -20.7 -5.3 77 -23.8 -10.8
11:00 1017 30.03 847 25.01 -20.6 -5.1 76 -23.8 -10.8
11:05 1017 30.03 846 24.98 -20.7 -5.2 76 -23.8 -10.9
11:10 1017 30.03 847 25.01 -20.7 -5.3 75 -24 -11.2
11:15 1017 30.03 847 25.01 -20.7 -5.3 78 -23.6 -10.4
11:20 1017 30.03 846 24.98 -20.5 -4.9 78 -23.4 -10.2
11:25 1017 30.03 846 24.98 -20.6 -5.1 78 -23.5 -10.3
11:30 1017 30.03 846 24.98 -20.6 -5.1 78 -23.5 -10.3
11:35 1017 30.03 846 24.98 -20.5 -5 77 -23.5 -10.4
11:40 1017 30.03 846 24.98 -20.5 -4.9 76 -23.7 -10.6
11:45 1017 30.03 846 24.98 -20.6 -5 77 -23.6 -10.6
11:50 1017 30.03 846 24.98 -20.5 -4.9 75 -23.8 -10.8
11:55 1017 30.03 846 24.98 -20.6 -5.1 74 -24.1 -11.4
12:00 1017 30.03 846 24.98 -20.6 -5.1 74 -24.1 -11.3
12:05 1017 30.03 846 24.98 -20.6 -5 74 -24.1 -11.4
12:10 1017 30.03 846 24.98 -20.5 -4.9 74 -24 -11.2
12:15 1017 30.03 846 24.98 -20.4 -4.8 71 -24.3 -11.8
12:20 1017 30.03 846 24.98 -20.5 -4.9 71 -24.4 -11.9
12:25 1017 30.03 846 24.98 -20.5 -4.8 72 -24.3 -11.8
12:30 1017 30.03 846 24.98 -20.4 -4.8 71 -24.4 -12
12:35 1017 30.03 846 24.98 -20.5 -4.8 70 -24.5 -12.1
12:40 1017 30.03 846 24.98 -20.4 -4.8 71 -24.3 -11.8
12:45 1017 30.03 846 24.98 -20.4 -4.7 69 -24.7 -12.4
12:50 1017 30.03 846 24.98 -20.4 -4.6 71 -24.3 -11.8
12:55 1017 30.03 846 24.98 -20.2 -4.3 68 -24.7 -12.4
13:00 1017 30.03 846 24.98 -20.3 -4.6 69 -24.6 -12.3
13:05 1017 30.03 846 24.98 -20.1 -4.1 66 -24.9 -12.8
13:10 1017 30.03 846 24.98 -20 -4.1 67 -24.7 -12.4
13:15 1017 30.03 846 24.98 -20.2 -4.4 66 -25 -13.1
13:20 1017 30.03 846 24.98 -20.1 -4.2 65 -25.1 -13.1
13:25 1017 30.03 846 24.98 -20.1 -4.1 65 -25.1 -13.2
13:30 1017 30.03 846 24.98 -20.1 -4.2 65 -25.1 -13.3
13:35 1017 30.03 846 24.98 -20.1 -4.3 66 -24.9 -12.8
13:40 1017 30.03 846 24.98 -19.9 -3.7 65 -24.9 -12.8
13:45 1017 30.03 846 24.98 -19.8 -3.6 63 -25.1 -13.1
13:50 1017 30.03 847 25.01 -19.9 -3.8 63 -25.2 -13.4
13:55 1017 30.03 847 25.01 -19.9 -3.8 62 -25.4 -13.7
14:00 1017 30.03 847 25.01 -19.9 -3.9 64 -25.2 -13.3
14:05 1017 30.03 847 25.01 -19.9 -3.7 63 -25.3 -13.5
14:10 1018 30.06 847 25.01 -19.8 -3.7 63 -25.1 -13.2
14:15 1018 30.06 847 25.01 -20 -4.1 64 -25.2 -13.3
14:20 1018 30.06 847 25.01 -20.1 -4.1 64 -25.2 -13.3
14:25 1018 30.06 847 25.01 -20.1 -4.3 63 -25.5 -13.9
14:30 1018 30.06 847 25.01 -20.1 -4.2 63 -25.5 -13.9
14:35 1018 30.06 847 25.01 -20 -3.9 61 -25.7 -14.2
14:40 1018 30.06 847 25.01 -20.1 -4.1 62 -25.5 -14
14:45 1018 30.06 847 25.01 -20 -4 62 -25.6 -14.1
14:50 1018 30.06 847 25.01 -20.1 -4.1 60 -25.9 -14.7
14:55 1018 30.06 847 25.01 -20.1 -4.1 60 -26 -14.8
15:00 1018 30.06 847 25.01 -20 -4.1 60 -25.9 -14.6
15:05 1018 30.06 847 25.01 -20.1 -4.1 59 -26.2 -15.2
15:10 1018 30.06 847 25.01 -20.1 -4.2 61 -25.9 -14.6
15:15 1018 30.06 847 25.01 -20.2 -4.3 59 -26.3 -15.3
15:20 1018 30.06 848 25.04 -20.2 -4.4 58 -26.5 -15.7
15:25 1018 30.06 848 25.04 -20.2 -4.3 57 -26.6 -15.8
15:30 1018 30.06 848 25.04 -20.1 -4.1 57 -26.6 -15.8
15:35 1018 30.06 848 25.04 -20 -4.1 57 -26.5 -15.8
15:40 1019 30.09 848 25.04 -20.1 -4.2 58 -26.4 -15.4
15:45 1019 30.09 848 25.04 -20.1 -4.1 57 -26.6 -15.8
15:50 1019 30.09 848 25.04 -20.1 -4.2 58 -26.5 -15.6
15:55 1019 30.09 848 25.04 -20 -4.1 56 -26.8 -16.2
16:00 1019 30.09 848 25.04 -20 -4 57 -26.6 -15.9
16:05 1019 30.09 848 25.04 -20.1 -4.1 55 -27 -16.5
16:10 1019 30.09 848 25.04 -20.2 -4.3 55 -27.1 -16.8
16:15 1019 30.09 848 25.04 -20.5 -4.9 55 -27.3 -17.2
16:20 1019 30.09 848 25.04 -20.5 -4.9 54 -27.5 -17.5
16:25 1019 30.09 848 25.04 -20.5 -5 53 -27.7 -17.9
16:30 1019 30.09 848 25.04 -20.5 -4.9 53 -27.7 -17.9
16:35 1019 30.09 848 25.04 -20.6 -5.2 54 -27.7 -17.9
16:40 1019 30.09 848 25.04 -20.7 -5.3 54 -27.8 -18.1
16:45 1019 30.09 848 25.04 -20.8 -5.4 54 -27.8 -18
16:50 1019 30.09 848 25.04 -20.8 -5.4 54 -27.8 -18
16:55 1019 30.09 848 25.04 -21.2 -6.1 55 -28 -18.3
17:00 1019 30.09 848 25.04 -21.2 -6.2 55 -28 -18.4
17:05 1019 30.09 849 25.07 -21 -5.7 55 -27.9 -18.2
17:10 1019 30.09 849 25.07 -21.1 -5.9 54 -28 -18.4
17:15 1019 30.09 849 25.07 -21.5 -6.7 55 -28.2 -18.8
17:20 1019 30.09 849 25.07 -21.6 -6.8 56 -28.2 -18.7
17:25 1019 30.09 849 25.07 -21.7 -7 56 -28.2 -18.8
17:30 1020 30.12 849 25.07 -21.6 -6.9 57 -28 -18.5
17:35 1020 30.12 849 25.07 -21.7 -7 60 -27.6 -17.6
17:40 1020 30.12 849 25.07 -21.5 -6.8 62 -27.1 -16.7
17:45 1020 30.12 849 25.07 -21.9 -7.3 66 -26.7 -16
17:50 1020 30.12 849 25.07 -21.7 -7.1 66 -26.5 -15.6
17:55 1020 30.12 849 25.07 -21.6 -6.9 66 -26.4 -15.5
18:00 1020 30.12 849 25.07 -21.5 -6.6 64 -26.6 -15.9
18:05 1020 30.12 849 25.07 -21.5 -6.7 65 -26.5 -15.7
18:10 1020 30.12 849 25.07 -22.2 -7.9 69 -26.4 -15.5
18:15 1020 30.12 849 25.07 -22.6 -8.7 72 -26.4 -15.5
18:20 1020 30.12 849 25.07 -23.1 -9.5 74 -26.5 -15.7
18:25 1020 30.12 849 25.07 -23.1 -9.5 73 -26.7 -16.1
18:30 1020 30.12 849 25.07 -22.9 -9.2 72 -26.7 -16.1
18:35 1020 30.12 849 25.07 -22.7 -8.9 70 -26.8 -16.2
18:40 1020 30.12 850 25.1 -22.4 -8.3 68 -26.8 -16.2
18:45 1020 30.12 850 25.1 -22.3 -8.1 68 -26.8 -16.2
18:50 1020 30.12 850 25.1 -22.4 -8.2 68 -26.8 -16.3
18:55 1020 30.12 850 25.1 -22.3 -8.2 68 -26.7 -16
19:00 1020 30.12 850 25.1 -22.4 -8.4 67 -27 -16.5
19:05 1020 30.12 850 25.1 -22.7 -8.8 69 -26.8 -16.3
19:10 1020 30.12 850 25.1 -22.9 -9.2 71 -26.8 -16.3
19:15 1021 30.15 850 25.1 -23 -9.3 70 -27 -16.7
19:20 1021 30.15 850 25.1 -23 -9.4 70 -27.1 -16.7
19:25 1021 30.15 850 25.1 -22.9 -9.1 69 -27.1 -16.7
19:30 1021 30.15 850 25.1 -22.8 -9 68 -27.1 -16.7
19:35 1021 30.15 850 25.1 -22.7 -8.8 69 -27 -16.5
19:40 1021 30.15 850 25.1 -22.7 -8.9 68 -27.1 -16.8
19:45 1021 30.15 850 25.1 -22.8 -9 68 -27.2 -17
19:50 1021 30.15 850 25.1 -22.6 -8.7 68 -27 -16.7
19:55 1021 30.15 850 25.1 -22.9 -9.1 69 -27.1 -16.8
20:00 1021 30.15 850 25.1 -23.1 -9.6 69 -27.3 -17.2
20:05 1021 30.15 850 25.1 -23.4 -10 70 -27.3 -17.2
20:10 1021 30.15 850 25.1 -23.3 -10 71 -27.3 -17.1
20:15 1021 30.15 850 25.1 -23.4 -10.1 71 -27.3 -17.1
20:20 1021 30.15 850 25.1 -23.4 -10.1 70 -27.4 -17.3
20:25 1021 30.15 850 25.1 -23.5 -10.3 71 -27.4 -17.3
20:30 1021 30.15 850 25.1 -23.6 -10.5 71 -27.4 -17.4
20:35 1021 30.15 850 25.1 -23.6 -10.4 71 -27.4 -17.3
20:40 1021 30.15 850 25.1 -23.6 -10.5 71 -27.5 -17.5
20:45 1021 30.15 850 25.1 -23.8 -10.8 71 -27.6 -17.6
20:50 1021 30.15 850 25.1 -23.9 -11 72 -27.6 -17.7
20:55 1020 30.12 850 25.1 -24 -11.3 72 -27.7 -17.9
21:00 1021 30.15 850 25.1 -24.1 -11.3 72 -27.8 -18.1
21:05 1020 30.12 850 25.1 -24.1 -11.4 72 -27.8 -18.1
21:10 1021 30.15 850 25.1 -24 -11.1 72 -27.7 -17.9
21:15 1021 30.15 850 25.1 -23.9 -10.9 71 -27.7 -17.8
21:20 1021 30.15 850 25.1 -23.8 -10.9 71 -27.6 -17.8
21:25 1020 30.12 850 25.1 -23.8 -10.9 72 -27.6 -17.7
21:30 1020 30.12 850 25.1 -23.7 -10.7 70 -27.7 -17.9
21:35 1020 30.12 850 25.1 -23.6 -10.5 70 -27.7 -17.8
21:40 1020 30.12 850 25.1 -23.6 -10.5 70 -27.7 -17.8
21:45 1021 30.15 850 25.1 -23.7 -10.7 71 -27.7 -17.8
21:50 1021 30.15 850 25.1 -23.8 -10.9 71 -27.7 -17.9
21:55 1021 30.15 850 25.1 -23.8 -10.8 70 -27.8 -18
22:00 1021 30.15 850 25.1 -23.9 -11 69 -28 -18.4
22:05 1021 30.15 850 25.1 -24 -11.2 69 -28.1 -18.6
22:10 1021 30.15 850 25.1 -24.6 -12.2 70 -28.5 -19.4
22:15 1021 30.15 850 25.1 -24.7 -12.5 69 -28.9 -20
22:20 1021 30.15 850 25.1 -24.7 -12.4 69 -28.8 -19.9
22:25 1021 30.15 850 25.1 -24.7 -12.5 69 -28.9 -20.1
22:30 1021 30.15 850 25.1 -24.7 -12.5 68 -29.1 -20.4
22:35 1021 30.15 850 25.1 -24.8 -12.6 68 -29.1 -20.4
22:40 1021 30.15 850 25.1 -24.6 -12.3 67 -29.1 -20.3
22:45 1021 30.15 850 25.1 -24.7 -12.4 68 -28.9 -20.1
22:50 1021 30.15 850 25.1 -24.6 -12.2 68 -28.9 -20
22:55 1021 30.15 850 25.1 -24.7 -12.5 71 -28.6 -19.5
23:00 1021 30.15 850 25.1 -25 -13 71 -28.9 -19.9
23:05 1021 30.15 850 25.1 -25.1 -13.2 71 -28.9 -20.1
23:10 1021 30.15 850 25.1 -25.2 -13.3 71 -29 -20.1
23:15 1021 30.15 850 25.1 -25.1 -13.2 71 -28.9 -20.1
23:20 1021 30.15 850 25.1 -25 -13 71 -28.8 -19.9
23:25 1021 30.15 850 25.1 -25 -13 71 -28.8 -19.9
23:30 1021 30.15 850 25.1 -24.9 -12.8 71 -28.7 -19.6
23:35 1021 30.15 850 25.1 -24.7 -12.5 71 -28.5 -19.4
23:40 1021 30.15 850 25.1 -24.7 -12.4 71 -28.5 -19.3
23:45 1021 30.15 850 25.1 -24.9 -12.8 71 -28.7 -19.7
23:50 1021 30.15 850 25.1 -24.8 -12.6 69 -28.9 -20
23:55 1021 30.15 850 25.1 -24.9 -12.8 69 -29 -20.2
24:00 1021 30.15 850 25.1 -24.8 -12.7 70 -28.8 -19.8